sensor_id;sensor_type;location;lat;lon;timestamp;pressure;altitude;pressure_sealevel;temperature;humidity
49843;BME280;55559;48.898;9.184;2023-03-13T00:01:10;97954.84;;;7.41;100.00
49843;BME280;55559;48.898;9.184;2023-03-13T00:03:38;97959.75;;;7.46;100.00
49843;BME280;55559;48.898;9.184;2023-03-13T00:06:06;97954.72;;;7.43;100.00
49843;BME280;55559;48.898;9.184;2023-03-13T00:08:34;97956.28;;;7.45;100.00
49843;BME280;55559;48.898;9.184;2023-03-13T00:11:02;97949.16;;;7.46;100.00
49843;BME280;55559;48.898;9.184;2023-03-13T00:13:30;97950.69;;;7.49;100.00
49843;BME280;55559;48.898;9.184;2023-03-13T00:16:01;97949.03;;;7.48;100.00
49843;BME280;55559;48.898;9.184;2023-03-13T00:18:30;97947.81;;;7.52;100.00
49843;BME280;55559;48.898;9.184;2023-03-13T00:20:58;97944.19;;;7.53;100.00
49843;BME280;55559;48.898;9.184;2023-03-13T00:23:26;97941.81;;;7.50;100.00
49843;BME280;55559;48.898;9.184;2023-03-13T00:25:58;97944.34;;;7.51;100.00
49843;BME280;55559;48.898;9.184;2023-03-13T00:28:27;97934.69;;;7.50;100.00
49843;BME280;55559;48.898;9.184;2023-03-13T00:31:00;97934.88;;;7.58;100.00
49843;BME280;55559;48.898;9.184;2023-03-13T00:33:29;97934.75;;;7.60;100.00
49843;BME280;55559;48.898;9.184;2023-03-13T00:35:58;97925.75;;;7.62;100.00
49843;BME280;55559;48.898;9.184;2023-03-13T00:38:27;97925.06;;;7.70;100.00
49843;BME280;55559;48.898;9.184;2023-03-13T00:40:59;97918.25;;;7.77;100.00
49843;BME280;55559;48.898;9.184;2023-03-13T00:43:26;97917.31;;;7.78;100.00
49843;BME280;55559;48.898;9.184;2023-03-13T00:45:54;97918.44;;;7.76;100.00
49843;BME280;55559;48.898;9.184;2023-03-13T00:48:22;97907.69;;;7.77;100.00
49843;BME280;55559;48.898;9.184;2023-03-13T00:50:51;97901.28;;;7.80;100.00
49843;BME280;55559;48.898;9.184;2023-03-13T00:53:19;97899.09;;;7.85;100.00
49843;BME280;55559;48.898;9.184;2023-03-13T00:55:51;97900.78;;;7.86;100.00
49843;BME280;55559;48.898;9.184;2023-03-13T00:58:19;97891.16;;;7.85;100.00
49843;BME280;55559;48.898;9.184;2023-03-13T01:00:47;97892.84;;;7.86;100.00
49843;BME280;55559;48.898;9.184;2023-03-13T01:03:15;97891.31;;;7.93;100.00
49843;BME280;55559;48.898;9.184;2023-03-13T01:05:42;97894.78;;;7.94;100.00
49843;BME280;55559;48.898;9.184;2023-03-13T01:08:11;97881.44;;;7.95;100.00
49843;BME280;55559;48.898;9.184;2023-03-13T01:10:38;97884.63;;;7.99;100.00
49843;BME280;55559;48.898;9.184;2023-03-13T01:13:06;97877.56;;;7.99;100.00
49843;BME280;55559;48.898;9.184;2023-03-13T01:15:34;97869.91;;;8.06;100.00
49843;BME280;55559;48.898;9.184;2023-03-13T01:18:02;97874.91;;;8.09;100.00
49843;BME280;55559;48.898;9.184;2023-03-13T01:20:30;97867.41;;;8.05;100.00
49843;BME280;55559;48.898;9.184;2023-03-13T01:22:57;97859.03;;;8.09;100.00
49843;BME280;55559;48.898;9.184;2023-03-13T01:25:26;97848.44;;;8.09;100.00
49843;BME280;55559;48.898;9.184;2023-03-13T01:27:53;97842.16;;;8.10;100.00
49843;BME280;55559;48.898;9.184;2023-03-13T01:30:21;97834.94;;;8.12;100.00
49843;BME280;55559;48.898;9.184;2023-03-13T01:32:48;97834.78;;;8.14;100.00
49843;BME280;55559;48.898;9.184;2023-03-13T01:35:17;97829.75;;;8.11;100.00
49843;BME280;55559;48.898;9.184;2023-03-13T01:37:45;97830.31;;;8.14;100.00
49843;BME280;55559;48.898;9.184;2023-03-13T01:40:12;97827.53;;;8.16;100.00
49843;BME280;55559;48.898;9.184;2023-03-13T01:42:53;97818.91;;;8.14;100.00
49843;BME280;55559;48.898;9.184;2023-03-13T01:48:45;97808.88;;;8.17;100.00
49843;BME280;55559;48.898;9.184;2023-03-13T01:51:19;97813.19;;;8.18;100.00
49843;BME280;55559;48.898;9.184;2023-03-13T01:53:50;97806.09;;;8.19;100.00
49843;BME280;55559;48.898;9.184;2023-03-13T01:56:22;97803.56;;;8.17;100.00
49843;BME280;55559;48.898;9.184;2023-03-13T01:58:56;97801.91;;;8.16;100.00
49843;BME280;55559;48.898;9.184;2023-03-13T02:01:26;97798.00;;;8.20;100.00
49843;BME280;55559;48.898;9.184;2023-03-13T02:03:55;97792.00;;;8.18;100.00
49843;BME280;55559;48.898;9.184;2023-03-13T02:06:28;97782.94;;;8.21;100.00
49843;BME280;55559;48.898;9.184;2023-03-13T02:09:00;97774.84;;;8.23;100.00
49843;BME280;55559;48.898;9.184;2023-03-13T02:11:38;97771.94;;;8.16;100.00
49843;BME280;55559;48.898;9.184;2023-03-13T02:14:11;97774.44;;;8.17;100.00
49843;BME280;55559;48.898;9.184;2023-03-13T02:16:39;97769.84;;;8.19;100.00
49843;BME280;55559;48.898;9.184;2023-03-13T02:19:17;97769.28;;;8.16;100.00
49843;BME280;55559;48.898;9.184;2023-03-13T02:21:49;97757.03;;;8.25;100.00
49843;BME280;55559;48.898;9.184;2023-03-13T02:24:27;97758.97;;;8.23;100.00
49843;BME280;55559;48.898;9.184;2023-03-13T02:26:59;97756.03;;;8.26;100.00
49843;BME280;55559;48.898;9.184;2023-03-13T02:29:26;97761.75;;;8.31;100.00
49843;BME280;55559;48.898;9.184;2023-03-13T02:31:54;97762.44;;;8.33;100.00
49843;BME280;55559;48.898;9.184;2023-03-13T02:34:30;97753.53;;;8.34;100.00
49843;BME280;55559;48.898;9.184;2023-03-13T02:37:01;97749.34;;;8.31;100.00
49843;BME280;55559;48.898;9.184;2023-03-13T02:39:31;97743.06;;;8.23;100.00
49843;BME280;55559;48.898;9.184;2023-03-13T02:42:02;97736.00;;;8.23;100.00
49843;BME280;55559;48.898;9.184;2023-03-13T02:44:37;97726.09;;;8.25;100.00
49843;BME280;55559;48.898;9.184;2023-03-13T02:47:06;97723.56;;;8.24;100.00
49843;BME280;55559;48.898;9.184;2023-03-13T02:49:35;97720.22;;;8.22;100.00
49843;BME280;55559;48.898;9.184;2023-03-13T02:52:09;97722.59;;;8.25;100.00
49843;BME280;55559;48.898;9.184;2023-03-13T02:54:43;97707.69;;;8.24;100.00
49843;BME280;55559;48.898;9.184;2023-03-13T02:57:13;97706.00;;;8.23;100.00
49843;BME280;55559;48.898;9.184;2023-03-13T02:59:40;97703.22;;;8.24;100.00
49843;BME280;55559;48.898;9.184;2023-03-13T03:02:08;97696.13;;;8.25;100.00
49843;BME280;55559;48.898;9.184;2023-03-13T03:04:36;97695.94;;;8.36;100.00
49843;BME280;55559;48.898;9.184;2023-03-13T03:07:04;97691.78;;;8.33;100.00
49843;BME280;55559;48.898;9.184;2023-03-13T03:09:32;97681.31;;;8.32;100.00
49843;BME280;55559;48.898;9.184;2023-03-13T03:12:05;97686.50;;;8.33;100.00
49843;BME280;55559;48.898;9.184;2023-03-13T03:14:34;97688.00;;;8.36;100.00
49843;BME280;55559;48.898;9.184;2023-03-13T03:17:01;97678.25;;;8.36;100.00
49843;BME280;55559;48.898;9.184;2023-03-13T03:19:29;97672.66;;;8.39;100.00
49843;BME280;55559;48.898;9.184;2023-03-13T03:21:57;97669.19;;;8.39;100.00
49843;BME280;55559;48.898;9.184;2023-03-13T03:24:24;97676.44;;;8.37;100.00
49843;BME280;55559;48.898;9.184;2023-03-13T03:26:54;97672.09;;;8.36;100.00
49843;BME280;55559;48.898;9.184;2023-03-13T03:29:26;97678.81;;;8.40;100.00
49843;BME280;55559;48.898;9.184;2023-03-13T03:31:56;97673.50;;;8.40;100.00
49843;BME280;55559;48.898;9.184;2023-03-13T03:34:24;97675.06;;;8.43;100.00
49843;BME280;55559;48.898;9.184;2023-03-13T03:36:52;97679.38;;;8.34;100.00
49843;BME280;55559;48.898;9.184;2023-03-13T03:39:19;97669.47;;;8.36;100.00
49843;BME280;55559;48.898;9.184;2023-03-13T03:41:47;97659.00;;;8.34;100.00
49843;BME280;55559;48.898;9.184;2023-03-13T03:44:15;97670.16;;;8.38;100.00
49843;BME280;55559;48.898;9.184;2023-03-13T03:46:51;97662.38;;;8.36;100.00
49843;BME280;55559;48.898;9.184;2023-03-13T03:49:21;97670.72;;;8.42;100.00
49843;BME280;55559;48.898;9.184;2023-03-13T03:51:49;97656.38;;;8.44;100.00
49843;BME280;55559;48.898;9.184;2023-03-13T03:54:22;97648.97;;;8.48;100.00
49843;BME280;55559;48.898;9.184;2023-03-13T03:56:50;97656.63;;;8.51;100.00
49843;BME280;55559;48.898;9.184;2023-03-13T03:59:17;97657.88;;;8.56;100.00
49843;BME280;55559;48.898;9.184;2023-03-13T04:01:55;97653.97;;;8.61;100.00
49843;BME280;55559;48.898;9.184;2023-03-13T04:04:26;97647.38;;;8.65;100.00
49843;BME280;55559;48.898;9.184;2023-03-13T04:07:01;97644.31;;;8.69;100.00
49843;BME280;55559;48.898;9.184;2023-03-13T04:09:30;97635.06;;;8.73;100.00
49843;BME280;55559;48.898;9.184;2023-03-13T04:11:59;97627.22;;;8.82;100.00
49843;BME280;55559;48.898;9.184;2023-03-13T04:14:27;97628.19;;;8.90;100.00
49843;BME280;55559;48.898;9.184;2023-03-13T04:16:54;97628.72;;;8.94;100.00
49843;BME280;55559;48.898;9.184;2023-03-13T04:19:23;97634.56;;;8.98;100.00
49843;BME280;55559;48.898;9.184;2023-03-13T04:21:52;97630.47;;;9.03;100.00
49843;BME280;55559;48.898;9.184;2023-03-13T04:24:21;97615.09;;;9.07;100.00
49843;BME280;55559;48.898;9.184;2023-03-13T04:26:49;97609.63;;;9.18;100.00
49843;BME280;55559;48.898;9.184;2023-03-13T04:29:16;97612.94;;;9.20;100.00
49843;BME280;55559;48.898;9.184;2023-03-13T04:31:57;97612.44;;;9.35;100.00
49843;BME280;55559;48.898;9.184;2023-03-13T04:34:42;97611.25;;;9.47;100.00
49843;BME280;55559;48.898;9.184;2023-03-13T04:37:29;97607.84;;;9.55;100.00
49843;BME280;55559;48.898;9.184;2023-03-13T04:40:16;97611.31;;;9.91;100.00
49843;BME280;55559;48.898;9.184;2023-03-13T04:43:02;97609.88;;;10.23;100.00
49843;BME280;55559;48.898;9.184;2023-03-13T04:45:35;97615.81;;;10.35;100.00
49843;BME280;55559;48.898;9.184;2023-03-13T04:48:23;97611.75;;;10.49;100.00
49843;BME280;55559;48.898;9.184;2023-03-13T04:51:00;97598.03;;;10.61;100.00
49843;BME280;55559;48.898;9.184;2023-03-13T04:54:01;97614.69;;;10.72;100.00
49843;BME280;55559;48.898;9.184;2023-03-13T04:56:55;97600.78;;;10.78;100.00
49843;BME280;55559;48.898;9.184;2023-03-13T04:59:26;97594.97;;;10.83;100.00
49843;BME280;55559;48.898;9.184;2023-03-13T05:02:15;97595.34;;;10.88;100.00
49843;BME280;55559;48.898;9.184;2023-03-13T05:05:01;97600.50;;;10.97;100.00
49843;BME280;55559;48.898;9.184;2023-03-13T05:07:46;97600.00;;;10.94;100.00
49843;BME280;55559;48.898;9.184;2023-03-13T05:10:42;97595.91;;;11.00;100.00
49843;BME280;55559;48.898;9.184;2023-03-13T05:13:35;97591.03;;;10.95;100.00
49843;BME280;55559;48.898;9.184;2023-03-13T05:16:28;97601.03;;;11.01;100.00
49843;BME280;55559;48.898;9.184;2023-03-13T05:19:16;97600.81;;;10.94;100.00
49843;BME280;55559;48.898;9.184;2023-03-13T05:22:19;97602.69;;;11.02;100.00
49843;BME280;55559;48.898;9.184;2023-03-13T05:25:13;97594.41;;;11.05;100.00
49843;BME280;55559;48.898;9.184;2023-03-13T05:28:03;97603.22;;;11.06;100.00
49843;BME280;55559;48.898;9.184;2023-03-13T05:30:36;97596.25;;;11.05;100.00
49843;BME280;55559;48.898;9.184;2023-03-13T05:33:25;97596.75;;;11.08;100.00
49843;BME280;55559;48.898;9.184;2023-03-13T05:36:05;97599.25;;;11.10;100.00
49843;BME280;55559;48.898;9.184;2023-03-13T05:38:32;97582.44;;;11.09;100.00
49843;BME280;55559;48.898;9.184;2023-03-13T05:41:15;97581.75;;;11.07;100.00
49843;BME280;55559;48.898;9.184;2023-03-13T05:43:59;97597.75;;;11.15;100.00
49843;BME280;55559;48.898;9.184;2023-03-13T05:46:52;97591.09;;;11.20;100.00
49843;BME280;55559;48.898;9.184;2023-03-13T05:49:25;97575.69;;;11.23;100.00
49843;BME280;55559;48.898;9.184;2023-03-13T05:51:59;97572.81;;;11.25;100.00
49843;BME280;55559;48.898;9.184;2023-03-13T05:54:49;97578.53;;;11.30;100.00
49843;BME280;55559;48.898;9.184;2023-03-13T05:57:33;97575.69;;;11.23;100.00
49843;BME280;55559;48.898;9.184;2023-03-13T06:00:08;97574.19;;;11.37;100.00
49843;BME280;55559;48.898;9.184;2023-03-13T06:02:39;97576.19;;;11.35;100.00
49843;BME280;55559;48.898;9.184;2023-03-13T06:05:10;97574.69;;;11.32;100.00
49843;BME280;55559;48.898;9.184;2023-03-13T06:07:38;97579.22;;;11.40;100.00
49843;BME280;55559;48.898;9.184;2023-03-13T06:10:06;97578.50;;;11.38;100.00
49843;BME280;55559;48.898;9.184;2023-03-13T06:12:34;97580.53;;;11.44;100.00
49843;BME280;55559;48.898;9.184;2023-03-13T06:15:02;97580.22;;;11.47;100.00
49843;BME280;55559;48.898;9.184;2023-03-13T06:17:58;97579.19;;;11.48;100.00
49843;BME280;55559;48.898;9.184;2023-03-13T06:20:26;97579.72;;;11.44;100.00
49843;BME280;55559;48.898;9.184;2023-03-13T06:22:53;97573.38;;;11.45;100.00
49843;BME280;55559;48.898;9.184;2023-03-13T06:25:21;97560.22;;;11.51;100.00
49843;BME280;55559;48.898;9.184;2023-03-13T06:27:50;97561.91;;;11.61;100.00
49843;BME280;55559;48.898;9.184;2023-03-13T06:30:17;97558.41;;;11.68;100.00
49843;BME280;55559;48.898;9.184;2023-03-13T06:32:45;97553.59;;;11.72;100.00
49843;BME280;55559;48.898;9.184;2023-03-13T06:35:14;97568.75;;;11.80;100.00
49843;BME280;55559;48.898;9.184;2023-03-13T06:37:41;97562.75;;;11.86;100.00
49843;BME280;55559;48.898;9.184;2023-03-13T06:40:10;97557.94;;;11.81;100.00
49843;BME280;55559;48.898;9.184;2023-03-13T06:42:37;97560.09;;;11.86;100.00
49843;BME280;55559;48.898;9.184;2023-03-13T06:45:06;97572.56;;;11.85;100.00
49843;BME280;55559;48.898;9.184;2023-03-13T06:47:34;97567.28;;;11.94;100.00
49843;BME280;55559;48.898;9.184;2023-03-13T06:50:01;97568.75;;;11.88;100.00
49843;BME280;55559;48.898;9.184;2023-03-13T06:52:30;97569.09;;;11.93;100.00
49843;BME280;55559;48.898;9.184;2023-03-13T06:54:58;97573.09;;;11.89;100.00
49843;BME280;55559;48.898;9.184;2023-03-13T06:57:25;97575.22;;;11.85;100.00
49843;BME280;55559;48.898;9.184;2023-03-13T06:59:53;97568.94;;;11.95;100.00
49843;BME280;55559;48.898;9.184;2023-03-13T07:02:20;97579.28;;;11.98;100.00
49843;BME280;55559;48.898;9.184;2023-03-13T07:04:47;97586.56;;;12.04;100.00
49843;BME280;55559;48.898;9.184;2023-03-13T07:07:15;97582.94;;;12.05;100.00
49843;BME280;55559;48.898;9.184;2023-03-13T07:09:44;97596.41;;;12.03;100.00
49843;BME280;55559;48.898;9.184;2023-03-13T07:12:12;97589.41;;;12.02;100.00
49843;BME280;55559;48.898;9.184;2023-03-13T07:14:39;97594.56;;;12.04;100.00
49843;BME280;55559;48.898;9.184;2023-03-13T07:17:06;97595.59;;;12.11;100.00
49843;BME280;55559;48.898;9.184;2023-03-13T07:19:34;97591.75;;;12.05;100.00
49843;BME280;55559;48.898;9.184;2023-03-13T07:22:01;97594.25;;;12.07;100.00
49843;BME280;55559;48.898;9.184;2023-03-13T07:24:29;97593.75;;;12.12;100.00
49843;BME280;55559;48.898;9.184;2023-03-13T07:26:58;97591.25;;;12.10;100.00
49843;BME280;55559;48.898;9.184;2023-03-13T07:29:26;97581.25;;;12.12;100.00
49843;BME280;55559;48.898;9.184;2023-03-13T07:31:53;97591.75;;;12.14;100.00
49843;BME280;55559;48.898;9.184;2023-03-13T07:34:20;97578.09;;;12.08;100.00
49843;BME280;55559;48.898;9.184;2023-03-13T07:36:48;97574.59;;;12.16;100.00
49843;BME280;55559;48.898;9.184;2023-03-13T07:39:15;97564.25;;;12.21;100.00
49843;BME280;55559;48.898;9.184;2023-03-13T07:41:42;97566.06;;;12.21;100.00
49843;BME280;55559;48.898;9.184;2023-03-13T07:44:16;97568.41;;;12.24;100.00
49843;BME280;55559;48.898;9.184;2023-03-13T07:46:44;97561.75;;;12.20;100.00
49843;BME280;55559;48.898;9.184;2023-03-13T07:49:13;97554.75;;;12.27;100.00
49843;BME280;55559;48.898;9.184;2023-03-13T07:51:40;97558.38;;;12.34;100.00
49843;BME280;55559;48.898;9.184;2023-03-13T07:54:08;97546.25;;;12.32;100.00
49843;BME280;55559;48.898;9.184;2023-03-13T07:56:35;97546.88;;;12.42;100.00
49843;BME280;55559;48.898;9.184;2023-03-13T07:59:03;97531.53;;;12.52;100.00
49843;BME280;55559;48.898;9.184;2023-03-13T08:01:31;97537.81;;;12.59;100.00
49843;BME280;55559;48.898;9.184;2023-03-13T08:03:59;97537.97;;;12.66;100.00
49843;BME280;55559;48.898;9.184;2023-03-13T08:06:28;97553.94;;;12.74;100.00
49843;BME280;55559;48.898;9.184;2023-03-13T08:08:57;97546.25;;;12.79;100.00
49843;BME280;55559;48.898;9.184;2023-03-13T08:11:26;97529.88;;;12.91;100.00
49843;BME280;55559;48.898;9.184;2023-03-13T08:13:55;97521.59;;;13.09;100.00
49843;BME280;55559;48.898;9.184;2023-03-13T08:16:24;97503.88;;;13.16;100.00
49843;BME280;55559;48.898;9.184;2023-03-13T08:18:54;97497.16;;;13.20;100.00
49843;BME280;55559;48.898;9.184;2023-03-13T08:21:24;97509.78;;;13.34;100.00
49843;BME280;55559;48.898;9.184;2023-03-13T08:23:53;97505.50;;;13.48;100.00
49843;BME280;55559;48.898;9.184;2023-03-13T08:26:23;97506.56;;;13.62;100.00
49843;BME280;55559;48.898;9.184;2023-03-13T08:28:52;97501.97;;;13.71;100.00
49843;BME280;55559;48.898;9.184;2023-03-13T08:31:21;97502.94;;;13.78;100.00
49843;BME280;55559;48.898;9.184;2023-03-13T08:33:49;97506.28;;;13.95;100.00
49843;BME280;55559;48.898;9.184;2023-03-13T08:36:19;97517.69;;;13.89;100.00
49843;BME280;55559;48.898;9.184;2023-03-13T08:38:48;97507.88;;;14.04;100.00
49843;BME280;55559;48.898;9.184;2023-03-13T08:41:17;97508.59;;;14.13;100.00
49843;BME280;55559;48.898;9.184;2023-03-13T08:43:45;97527.22;;;14.06;100.00
49843;BME280;55559;48.898;9.184;2023-03-13T08:46:13;97526.75;;;14.03;100.00
49843;BME280;55559;48.898;9.184;2023-03-13T08:48:41;97518.91;;;14.01;100.00
49843;BME280;55559;48.898;9.184;2023-03-13T08:51:10;97509.91;;;14.17;100.00
49843;BME280;55559;48.898;9.184;2023-03-13T08:53:41;97528.47;;;14.19;100.00
49843;BME280;55559;48.898;9.184;2023-03-13T08:56:10;97512.69;;;14.24;100.00
49843;BME280;55559;48.898;9.184;2023-03-13T08:58:37;97510.75;;;14.32;100.00
49843;BME280;55559;48.898;9.184;2023-03-13T09:01:07;97519.22;;;14.36;100.00
49843;BME280;55559;48.898;9.184;2023-03-13T09:03:35;97514.50;;;14.23;100.00
49843;BME280;55559;48.898;9.184;2023-03-13T09:06:03;97522.00;;;14.43;100.00
49843;BME280;55559;48.898;9.184;2023-03-13T09:08:31;97516.66;;;14.28;100.00
49843;BME280;55559;48.898;9.184;2023-03-13T09:11:01;97530.28;;;14.33;100.00
49843;BME280;55559;48.898;9.184;2023-03-13T09:13:31;97531.41;;;14.24;100.00
49843;BME280;55559;48.898;9.184;2023-03-13T09:15:59;97529.94;;;14.36;100.00
49843;BME280;55559;48.898;9.184;2023-03-13T09:18:28;97515.47;;;14.45;100.00
49843;BME280;55559;48.898;9.184;2023-03-13T09:20:55;97510.41;;;14.50;100.00
49843;BME280;55559;48.898;9.184;2023-03-13T09:23:23;97509.63;;;14.57;100.00
49843;BME280;55559;48.898;9.184;2023-03-13T09:25:52;97515.16;;;15.00;100.00
49843;BME280;55559;48.898;9.184;2023-03-13T09:28:22;97505.34;;;15.07;100.00
49843;BME280;55559;48.898;9.184;2023-03-13T09:30:49;97519.56;;;15.07;100.00
49843;BME280;55559;48.898;9.184;2023-03-13T09:33:17;97524.84;;;15.01;100.00
49843;BME280;55559;48.898;9.184;2023-03-13T09:35:44;97521.69;;;14.97;100.00
49843;BME280;55559;48.898;9.184;2023-03-13T09:38:16;97527.22;;;15.11;100.00
49843;BME280;55559;48.898;9.184;2023-03-13T09:40:45;97535.31;;;15.17;100.00
49843;BME280;55559;48.898;9.184;2023-03-13T09:43:23;97531.75;;;15.10;100.00
49843;BME280;55559;48.898;9.184;2023-03-13T09:45:56;97520.09;;;15.18;100.00
49843;BME280;55559;48.898;9.184;2023-03-13T09:48:29;97525.66;;;15.38;100.00
49843;BME280;55559;48.898;9.184;2023-03-13T09:51:02;97515.25;;;15.71;100.00
49843;BME280;55559;48.898;9.184;2023-03-13T09:53:40;97504.84;;;16.05;100.00
49843;BME280;55559;48.898;9.184;2023-03-13T09:56:15;97495.19;;;16.10;100.00
49843;BME280;55559;48.898;9.184;2023-03-13T09:58:50;97487.75;;;16.06;100.00
49843;BME280;55559;48.898;9.184;2023-03-13T10:01:24;97481.97;;;16.09;100.00
49843;BME280;55559;48.898;9.184;2023-03-13T10:03:59;97487.84;;;16.19;100.00
49843;BME280;55559;48.898;9.184;2023-03-13T10:06:33;97485.53;;;16.16;100.00
49843;BME280;55559;48.898;9.184;2023-03-13T10:09:01;97490.19;;;16.35;100.00
49843;BME280;55559;48.898;9.184;2023-03-13T10:11:35;97481.88;;;16.24;100.00
49843;BME280;55559;48.898;9.184;2023-03-13T10:14:11;97472.78;;;16.60;100.00
49843;BME280;55559;48.898;9.184;2023-03-13T10:16:43;97469.38;;;16.38;100.00
49843;BME280;55559;48.898;9.184;2023-03-13T10:19:14;97474.72;;;16.31;100.00
49843;BME280;55559;48.898;9.184;2023-03-13T10:21:45;97467.00;;;16.56;100.00
49843;BME280;55559;48.898;9.184;2023-03-13T10:24:16;97464.50;;;16.54;100.00
49843;BME280;55559;48.898;9.184;2023-03-13T10:26:44;97462.91;;;16.67;100.00
49843;BME280;55559;48.898;9.184;2023-03-13T10:29:20;97452.84;;;16.82;100.00
49843;BME280;55559;48.898;9.184;2023-03-13T10:31:55;97455.38;;;16.90;100.00
49843;BME280;55559;48.898;9.184;2023-03-13T10:34:24;97447.41;;;17.31;96.94
49843;BME280;55559;48.898;9.184;2023-03-13T10:36:55;97457.75;;;17.47;96.63
49843;BME280;55559;48.898;9.184;2023-03-13T10:39:25;97446.56;;;17.30;95.67
49843;BME280;55559;48.898;9.184;2023-03-13T10:41:58;97439.94;;;17.06;99.02
49843;BME280;55559;48.898;9.184;2023-03-13T10:44:31;97448.72;;;16.80;100.00
49843;BME280;55559;48.898;9.184;2023-03-13T10:46:59;97441.97;;;16.97;100.00
49843;BME280;55559;48.898;9.184;2023-03-13T10:49:28;97441.16;;;16.97;100.00
49843;BME280;55559;48.898;9.184;2023-03-13T10:51:58;97440.91;;;16.85;100.00
49843;BME280;55559;48.898;9.184;2023-03-13T10:54:28;97444.72;;;16.62;100.00
49843;BME280;55559;48.898;9.184;2023-03-13T10:57:27;97444.88;;;17.02;100.00
49843;BME280;55559;48.898;9.184;2023-03-13T10:59:57;97431.69;;;17.21;100.00
49843;BME280;55559;48.898;9.184;2023-03-13T11:02:32;97419.91;;;17.08;100.00
49843;BME280;55559;48.898;9.184;2023-03-13T11:05:00;97421.34;;;17.11;100.00
49843;BME280;55559;48.898;9.184;2023-03-13T11:07:31;97430.66;;;17.28;100.00
49843;BME280;55559;48.898;9.184;2023-03-13T11:10:01;97432.31;;;17.23;98.42
49843;BME280;55559;48.898;9.184;2023-03-13T11:12:33;97419.69;;;17.10;97.49
49843;BME280;55559;48.898;9.184;2023-03-13T11:15:10;97416.16;;;17.09;97.33
49843;BME280;55559;48.898;9.184;2023-03-13T11:17:40;97414.34;;;17.30;97.63
49843;BME280;55559;48.898;9.184;2023-03-13T11:20:16;97411.03;;;17.48;95.22
49843;BME280;55559;48.898;9.184;2023-03-13T11:23:06;97399.88;;;17.38;95.35
49843;BME280;55559;48.898;9.184;2023-03-13T11:25:43;97393.66;;;17.91;91.16
49843;BME280;55559;48.898;9.184;2023-03-13T11:28:26;97395.31;;;17.85;89.14
49843;BME280;55559;48.898;9.184;2023-03-13T11:31:16;97387.97;;;18.32;86.74
49843;BME280;55559;48.898;9.184;2023-03-13T11:33:53;97389.47;;;18.21;82.16
49843;BME280;55559;48.898;9.184;2023-03-13T11:36:29;97362.38;;;18.62;81.05
49843;BME280;55559;48.898;9.184;2023-03-13T11:39:23;97366.94;;;18.61;80.94
49843;BME280;55559;48.898;9.184;2023-03-13T11:41:59;97353.13;;;18.51;80.63
49843;BME280;55559;48.898;9.184;2023-03-13T11:44:30;97346.38;;;18.67;79.58
49843;BME280;55559;48.898;9.184;2023-03-13T11:47:27;97332.41;;;18.90;78.30
49843;BME280;55559;48.898;9.184;2023-03-13T11:50:06;97320.06;;;18.75;79.80
49843;BME280;55559;48.898;9.184;2023-03-13T11:52:45;97316.75;;;19.05;77.79
49843;BME280;55559;48.898;9.184;2023-03-13T11:55:27;97295.56;;;18.84;78.14
49843;BME280;55559;48.898;9.184;2023-03-13T11:58:12;97290.53;;;18.94;77.37
49843;BME280;55559;48.898;9.184;2023-03-13T12:00:46;97306.34;;;18.84;76.05
49843;BME280;55559;48.898;9.184;2023-03-13T12:03:18;97287.97;;;19.06;74.61
49843;BME280;55559;48.898;9.184;2023-03-13T12:05:50;97270.44;;;18.90;76.54
49843;BME280;55559;48.898;9.184;2023-03-13T12:08:20;97273.47;;;19.25;74.55
49843;BME280;55559;48.898;9.184;2023-03-13T12:11:00;97279.03;;;19.30;73.15
49843;BME280;55559;48.898;9.184;2023-03-13T12:13:35;97260.78;;;19.51;71.04
49843;BME280;55559;48.898;9.184;2023-03-13T12:16:08;97262.28;;;19.47;70.85
49843;BME280;55559;48.898;9.184;2023-03-13T12:18:39;97269.75;;;19.26;70.74
49843;BME280;55559;48.898;9.184;2023-03-13T12:21:15;97247.69;;;19.55;68.92
49843;BME280;55559;48.898;9.184;2023-03-13T12:23:49;97240.06;;;19.70;68.57
49843;BME280;55559;48.898;9.184;2023-03-13T12:26:20;97226.50;;;19.58;69.29
49843;BME280;55559;48.898;9.184;2023-03-13T12:29:03;97214.66;;;19.59;71.16
49843;BME280;55559;48.898;9.184;2023-03-13T12:31:35;97212.72;;;19.66;67.74
49843;BME280;55559;48.898;9.184;2023-03-13T12:34:11;97204.09;;;19.58;68.69
49843;BME280;55559;48.898;9.184;2023-03-13T12:36:44;97198.47;;;19.78;68.04
49843;BME280;55559;48.898;9.184;2023-03-13T12:39:29;97186.72;;;19.35;68.54
49843;BME280;55559;48.898;9.184;2023-03-13T12:42:22;97193.84;;;19.29;69.78
49843;BME280;55559;48.898;9.184;2023-03-13T12:44:54;97188.28;;;19.80;69.09
49843;BME280;55559;48.898;9.184;2023-03-13T12:47:26;97175.19;;;19.65;66.78
49843;BME280;55559;48.898;9.184;2023-03-13T12:50:27;97164.31;;;19.72;66.28
49843;BME280;55559;48.898;9.184;2023-03-13T12:53:13;97151.59;;;19.79;65.32
49843;BME280;55559;48.898;9.184;2023-03-13T12:58:51;97128.19;;;19.91;64.04
49843;BME280;55559;48.898;9.184;2023-03-13T13:01:28;97133.75;;;20.08;64.37
49843;BME280;55559;48.898;9.184;2023-03-13T13:03:58;97122.97;;;19.78;64.47
49843;BME280;55559;48.898;9.184;2023-03-13T13:06:49;97126.91;;;19.94;64.61
49843;BME280;55559;48.898;9.184;2023-03-13T13:09:21;97117.56;;;19.78;65.09
49843;BME280;55559;48.898;9.184;2023-03-13T13:11:50;97108.16;;;19.99;64.36
49843;BME280;55559;48.898;9.184;2023-03-13T13:14:56;97101.50;;;20.25;63.77
49843;BME280;55559;48.898;9.184;2023-03-13T13:17:50;97098.13;;;20.30;63.73
49843;BME280;55559;48.898;9.184;2023-03-13T13:20:41;97087.94;;;20.55;61.74
49843;BME280;55559;48.898;9.184;2023-03-13T13:23:30;97058.69;;;20.52;62.71
49843;BME280;55559;48.898;9.184;2023-03-13T13:32:42;97043.91;;;20.43;61.22
49843;BME280;55559;48.898;9.184;2023-03-13T13:35:29;97033.81;;;20.50;62.81
49843;BME280;55559;48.898;9.184;2023-03-13T13:41:24;97020.66;;;20.42;59.27